Norway House Airport
CYNE : now visible

Airfield :











YOU CAN JOIN US ON...

 
LOGIN :

Register | Disclaimer

   EN    FR    IT 

 









Legend :    VFR   Marginal VFR   IFR   Intensive IFR   Very Intensive IFR
Visi :
Ceiling :
>= 8 km
>= 3000ft
5 to 8 km
1000 to 3000 ft
1500m to 5 km
500 to 1000 ft
800 to 1500m
200 to 500 ft
< 800m
< 200 ft
Symbols :   Thunderstorms  Fog  Heavy snow  Heavy precipitations  Wind > 20 kt







- Airport Elevation : 734 ft
- IATA code : YNE


CYNE - Norway House

CURRENT METAR :
  • 191200Z AUTO 03003KT 310V100 9SM CLR 04/00 A3032 RMK SLP278

EXPIRED METARs :
  • 191100Z AUTO 00000KT 9SM CLR 01/M00 A3032 RMK SLP279
  • 191000Z AUTO 06003KT 9SM CLR 02/00 A3031 RMK SLP277

TAF TAF CYNE
Valid from the 19 at 07:00 until the 19 at 19:00 UTC


190638Z 1907/1919 VRB03KT P6SM SCT070
TEMPO 1907/1909 BKN070
BECMG 1914/1916 01008KT RMK FCST BASED ON AUTO OBS. NXT FCST BY 191300Z
CZWG FIR / North America



MET'MAP, your aeronautical weather chart ! - Copyright ORBIFLY December 2007 - Disclaimer

ORBIFLY MET'MAP TEAM :

Programming & Development : Alexandra Zaïnal
Concept & Development : Baudouin d'Aumeries
Co-Development & Prog : Marc-Olivier Méhu
Technical & hardware support : Manuel Goepfert

Contact : metmap@orbifly.com




SOURCES & CREDITS :

   NOAA       Earth
Advisory